South Danville, New Hampshire
Current Conditions -  °F | °C
As of 1:54 PM on Thursday 30 Oct 2014 (Local Time) from KLWM Reporting Station
Overcast Overcast  
Wind Chill: 54°   Ceiling: 6000
Heat Index: 54°   Visibility: 10mi
Dew Point: 39°   Wind: 9mph
Humidity: 57%   Direction: 320°NW
Pressure: 29.93"   Gusts: NA
Location:  42.9217°N, 71.1138°W
Report Text: KLWM 301754Z 32008KT 10SM BKN060 OVC075 12/04 A2993 RMK AO2 SLP135 T01220039 10139 20039 56006
Loading
Personal Weather Stations






























Interactive Weather Map
Tropical Storm Tracking
New forecast layout! Learn more

10-Day Weather Forecast

Advertisements
Track Severe Weather on mobile